sensor_id;sensor_type;location;lat;lon;timestamp;temperature;humidity
8114;DHT22;4099;52.684;9.918;2024-02-16T00:03:37;9.80;99.90
8114;DHT22;4099;52.684;9.918;2024-02-16T00:08:39;9.70;99.90
8114;DHT22;4099;52.684;9.918;2024-02-16T00:13:41;9.80;99.90
8114;DHT22;4099;52.684;9.918;2024-02-16T00:18:44;9.70;99.90
8114;DHT22;4099;52.684;9.918;2024-02-16T00:23:46;9.80;99.90
8114;DHT22;4099;52.684;9.918;2024-02-16T00:28:50;9.90;99.90
8114;DHT22;4099;52.684;9.918;2024-02-16T00:33:54;9.90;99.90
8114;DHT22;4099;52.684;9.918;2024-02-16T00:38:56;9.70;99.90
8114;DHT22;4099;52.684;9.918;2024-02-16T00:43:57;9.70;99.90
8114;DHT22;4099;52.684;9.918;2024-02-16T00:49:02;9.60;99.90
8114;DHT22;4099;52.684;9.918;2024-02-16T00:54:04;9.60;99.90
8114;DHT22;4099;52.684;9.918;2024-02-16T00:59:10;9.70;99.90
8114;DHT22;4099;52.684;9.918;2024-02-16T01:04:16;9.80;99.90
8114;DHT22;4099;52.684;9.918;2024-02-16T01:09:18;9.80;99.90
8114;DHT22;4099;52.684;9.918;2024-02-16T01:14:21;9.80;99.90
8114;DHT22;4099;52.684;9.918;2024-02-16T01:19:27;9.80;99.90
8114;DHT22;4099;52.684;9.918;2024-02-16T01:24:29;9.70;99.90
8114;DHT22;4099;52.684;9.918;2024-02-16T01:29:31;9.70;99.90
8114;DHT22;4099;52.684;9.918;2024-02-16T01:34:34;9.70;99.90
8114;DHT22;4099;52.684;9.918;2024-02-16T01:39:39;9.80;99.90
8114;DHT22;4099;52.684;9.918;2024-02-16T01:44:41;9.80;99.90
8114;DHT22;4099;52.684;9.918;2024-02-16T01:49:44;9.90;99.90
8114;DHT22;4099;52.684;9.918;2024-02-16T01:54:50;10.00;99.90
8114;DHT22;4099;52.684;9.918;2024-02-16T01:59:52;10.00;99.90
8114;DHT22;4099;52.684;9.918;2024-02-16T02:04:56;10.00;99.90
8114;DHT22;4099;52.684;9.918;2024-02-16T02:09:58;10.00;99.90
8114;DHT22;4099;52.684;9.918;2024-02-16T02:15:04;10.10;99.90
8114;DHT22;4099;52.684;9.918;2024-02-16T02:20:11;10.00;99.90
8114;DHT22;4099;52.684;9.918;2024-02-16T02:25:16;10.00;99.90
8114;DHT22;4099;52.684;9.918;2024-02-16T02:30:20;9.90;99.90
8114;DHT22;4099;52.684;9.918;2024-02-16T02:35:22;9.90;99.90
8114;DHT22;4099;52.684;9.918;2024-02-16T02:40:25;9.90;99.90
8114;DHT22;4099;52.684;9.918;2024-02-16T02:45:27;9.80;99.90
8114;DHT22;4099;52.684;9.918;2024-02-16T02:50:29;9.80;99.90
8114;DHT22;4099;52.684;9.918;2024-02-16T02:55:33;9.80;99.90
8114;DHT22;4099;52.684;9.918;2024-02-16T03:00:35;9.70;99.90
8114;DHT22;4099;52.684;9.918;2024-02-16T03:05:37;9.70;99.90
8114;DHT22;4099;52.684;9.918;2024-02-16T03:10:40;9.70;99.90
8114;DHT22;4099;52.684;9.918;2024-02-16T03:15:42;9.60;99.90
8114;DHT22;4099;52.684;9.918;2024-02-16T03:20:44;9.60;99.90
8114;DHT22;4099;52.684;9.918;2024-02-16T03:25:50;9.70;99.90
8114;DHT22;4099;52.684;9.918;2024-02-16T03:30:55;9.70;99.90
8114;DHT22;4099;52.684;9.918;2024-02-16T03:35:56;9.70;99.90
8114;DHT22;4099;52.684;9.918;2024-02-16T03:41:04;9.70;99.90
8114;DHT22;4099;52.684;9.918;2024-02-16T03:46:09;9.50;99.90
8114;DHT22;4099;52.684;9.918;2024-02-16T03:51:11;9.50;99.90
8114;DHT22;4099;52.684;9.918;2024-02-16T03:56:19;9.40;99.90
8114;DHT22;4099;52.684;9.918;2024-02-16T04:01:24;9.50;99.90
8114;DHT22;4099;52.684;9.918;2024-02-16T04:06:26;9.50;99.90
8114;DHT22;4099;52.684;9.918;2024-02-16T04:11:29;9.50;99.90
8114;DHT22;4099;52.684;9.918;2024-02-16T04:16:31;9.50;99.90
8114;DHT22;4099;52.684;9.918;2024-02-16T04:21:33;9.50;99.90
8114;DHT22;4099;52.684;9.918;2024-02-16T04:26:39;9.50;99.90
8114;DHT22;4099;52.684;9.918;2024-02-16T04:31:45;9.50;99.90
8114;DHT22;4099;52.684;9.918;2024-02-16T04:36:47;9.50;99.90
8114;DHT22;4099;52.684;9.918;2024-02-16T04:41:54;9.50;99.90
8114;DHT22;4099;52.684;9.918;2024-02-16T04:46:56;9.60;99.90
8114;DHT22;4099;52.684;9.918;2024-02-16T04:51:58;9.60;99.90
8114;DHT22;4099;52.684;9.918;2024-02-16T04:57:01;9.60;99.90
8114;DHT22;4099;52.684;9.918;2024-02-16T05:02:03;9.70;99.90
8114;DHT22;4099;52.684;9.918;2024-02-16T05:07:07;9.70;99.90
8114;DHT22;4099;52.684;9.918;2024-02-16T05:12:11;9.70;99.90
8114;DHT22;4099;52.684;9.918;2024-02-16T05:17:13;9.60;99.90
8114;DHT22;4099;52.684;9.918;2024-02-16T05:22:15;9.50;99.90
8114;DHT22;4099;52.684;9.918;2024-02-16T05:27:20;9.30;99.90
8114;DHT22;4099;52.684;9.918;2024-02-16T05:32:21;9.10;99.90
8114;DHT22;4099;52.684;9.918;2024-02-16T05:37:28;9.10;99.90
8114;DHT22;4099;52.684;9.918;2024-02-16T05:42:34;9.00;99.90
8114;DHT22;4099;52.684;9.918;2024-02-16T05:47:36;8.90;99.90
8114;DHT22;4099;52.684;9.918;2024-02-16T05:52:39;9.00;99.90
8114;DHT22;4099;52.684;9.918;2024-02-16T05:57:42;9.00;99.90
8114;DHT22;4099;52.684;9.918;2024-02-16T06:02:47;9.00;99.90
8114;DHT22;4099;52.684;9.918;2024-02-16T06:07:49;8.90;99.90
8114;DHT22;4099;52.684;9.918;2024-02-16T06:12:52;8.90;99.90
8114;DHT22;4099;52.684;9.918;2024-02-16T06:17:57;8.80;99.90
8114;DHT22;4099;52.684;9.918;2024-02-16T06:23:01;8.70;99.90
8114;DHT22;4099;52.684;9.918;2024-02-16T06:28:05;8.70;99.90
8114;DHT22;4099;52.684;9.918;2024-02-16T06:33:07;8.60;99.90
8114;DHT22;4099;52.684;9.918;2024-02-16T06:38:09;8.50;99.90
8114;DHT22;4099;52.684;9.918;2024-02-16T06:43:12;8.50;99.90
8114;DHT22;4099;52.684;9.918;2024-02-16T06:48:14;8.60;99.90
8114;DHT22;4099;52.684;9.918;2024-02-16T06:53:15;8.50;99.90
8114;DHT22;4099;52.684;9.918;2024-02-16T06:58:22;8.50;99.90
8114;DHT22;4099;52.684;9.918;2024-02-16T07:03:23;8.60;99.90
8114;DHT22;4099;52.684;9.918;2024-02-16T07:08:25;8.60;99.90
8114;DHT22;4099;52.684;9.918;2024-02-16T07:13:28;8.70;99.90
8114;DHT22;4099;52.684;9.918;2024-02-16T07:18:33;8.70;99.90
8114;DHT22;4099;52.684;9.918;2024-02-16T07:23:35;8.70;99.90
8114;DHT22;4099;52.684;9.918;2024-02-16T07:28:40;8.70;99.90
8114;DHT22;4099;52.684;9.918;2024-02-16T07:33:42;8.80;99.90
8114;DHT22;4099;52.684;9.918;2024-02-16T07:38:44;8.70;99.90
8114;DHT22;4099;52.684;9.918;2024-02-16T07:43:50;8.70;99.90
8114;DHT22;4099;52.684;9.918;2024-02-16T07:48:52;8.60;99.90
8114;DHT22;4099;52.684;9.918;2024-02-16T07:53:57;8.70;99.90
8114;DHT22;4099;52.684;9.918;2024-02-16T07:59:00;8.80;99.90
8114;DHT22;4099;52.684;9.918;2024-02-16T08:04:05;9.20;99.90
8114;DHT22;4099;52.684;9.918;2024-02-16T08:09:06;9.60;99.90
8114;DHT22;4099;52.684;9.918;2024-02-16T08:14:10;10.10;99.90
8114;DHT22;4099;52.684;9.918;2024-02-16T08:19:15;10.50;99.90
8114;DHT22;4099;52.684;9.918;2024-02-16T08:24:16;10.80;99.90
8114;DHT22;4099;52.684;9.918;2024-02-16T08:29:20;11.10;99.90
8114;DHT22;4099;52.684;9.918;2024-02-16T08:34:22;11.40;99.90
8114;DHT22;4099;52.684;9.918;2024-02-16T08:39:30;11.50;99.90
8114;DHT22;4099;52.684;9.918;2024-02-16T08:44:33;11.70;99.90
8114;DHT22;4099;52.684;9.918;2024-02-16T08:49:37;11.90;99.90
8114;DHT22;4099;52.684;9.918;2024-02-16T08:54:45;12.10;99.90
8114;DHT22;4099;52.684;9.918;2024-02-16T08:59:51;12.20;99.90
8114;DHT22;4099;52.684;9.918;2024-02-16T09:04:56;12.40;99.90
8114;DHT22;4099;52.684;9.918;2024-02-16T09:10:00;12.70;99.90
8114;DHT22;4099;52.684;9.918;2024-02-16T09:15:05;12.90;99.90
8114;DHT22;4099;52.684;9.918;2024-02-16T09:20:08;13.00;99.90
8114;DHT22;4099;52.684;9.918;2024-02-16T09:25:22;13.10;99.90
8114;DHT22;4099;52.684;9.918;2024-02-16T09:30:26;13.20;99.90
8114;DHT22;4099;52.684;9.918;2024-02-16T09:35:30;13.30;99.90
8114;DHT22;4099;52.684;9.918;2024-02-16T09:40:32;13.40;99.90
8114;DHT22;4099;52.684;9.918;2024-02-16T09:45:36;13.60;99.90
8114;DHT22;4099;52.684;9.918;2024-02-16T09:50:38;13.60;99.90
8114;DHT22;4099;52.684;9.918;2024-02-16T09:55:43;13.70;99.90
8114;DHT22;4099;52.684;9.918;2024-02-16T10:00:50;13.70;99.90
8114;DHT22;4099;52.684;9.918;2024-02-16T10:06:04;13.90;99.90
8114;DHT22;4099;52.684;9.918;2024-02-16T10:11:07;13.90;99.90
8114;DHT22;4099;52.684;9.918;2024-02-16T10:16:11;14.10;99.90
8114;DHT22;4099;52.684;9.918;2024-02-16T10:21:13;14.10;99.90
8114;DHT22;4099;52.684;9.918;2024-02-16T10:26:15;14.20;99.90
8114;DHT22;4099;52.684;9.918;2024-02-16T10:31:18;14.20;99.90
8114;DHT22;4099;52.684;9.918;2024-02-16T10:36:26;14.30;99.90
8114;DHT22;4099;52.684;9.918;2024-02-16T10:41:29;14.60;99.90
8114;DHT22;4099;52.684;9.918;2024-02-16T10:46:35;14.70;99.90
8114;DHT22;4099;52.684;9.918;2024-02-16T10:51:39;15.00;99.90
8114;DHT22;4099;52.684;9.918;2024-02-16T10:56:43;15.20;99.90
8114;DHT22;4099;52.684;9.918;2024-02-16T11:01:46;15.30;99.90
8114;DHT22;4099;52.684;9.918;2024-02-16T11:06:51;15.30;99.90
8114;DHT22;4099;52.684;9.918;2024-02-16T11:11:54;15.40;99.90
8114;DHT22;4099;52.684;9.918;2024-02-16T11:17:01;15.30;99.90
8114;DHT22;4099;52.684;9.918;2024-02-16T11:22:04;15.30;99.90
8114;DHT22;4099;52.684;9.918;2024-02-16T11:27:10;15.40;99.90
8114;DHT22;4099;52.684;9.918;2024-02-16T11:32:19;15.60;99.90
8114;DHT22;4099;52.684;9.918;2024-02-16T11:37:21;15.60;99.90
8114;DHT22;4099;52.684;9.918;2024-02-16T11:42:24;15.50;99.90
8114;DHT22;4099;52.684;9.918;2024-02-16T11:47:30;15.30;99.90
8114;DHT22;4099;52.684;9.918;2024-02-16T11:52:32;15.40;99.90
8114;DHT22;4099;52.684;9.918;2024-02-16T11:57:37;15.40;99.90
8114;DHT22;4099;52.684;9.918;2024-02-16T12:02:41;15.50;99.90
8114;DHT22;4099;52.684;9.918;2024-02-16T12:07:42;15.80;99.90
8114;DHT22;4099;52.684;9.918;2024-02-16T12:12:47;15.90;99.90
8114;DHT22;4099;52.684;9.918;2024-02-16T12:18:00;16.20;99.90
8114;DHT22;4099;52.684;9.918;2024-02-16T12:23:11;16.40;99.90
8114;DHT22;4099;52.684;9.918;2024-02-16T12:28:13;16.70;99.90
8114;DHT22;4099;52.684;9.918;2024-02-16T12:33:16;17.10;99.90
8114;DHT22;4099;52.684;9.918;2024-02-16T12:38:18;17.10;99.90
8114;DHT22;4099;52.684;9.918;2024-02-16T12:43:20;16.80;99.90
8114;DHT22;4099;52.684;9.918;2024-02-16T12:48:27;16.60;99.90
8114;DHT22;4099;52.684;9.918;2024-02-16T12:53:30;16.50;99.90
8114;DHT22;4099;52.684;9.918;2024-02-16T12:58:44;16.60;99.90
8114;DHT22;4099;52.684;9.918;2024-02-16T13:03:50;16.60;99.90
8114;DHT22;4099;52.684;9.918;2024-02-16T13:08:54;16.40;99.90
8114;DHT22;4099;52.684;9.918;2024-02-16T13:13:59;16.20;99.90
8114;DHT22;4099;52.684;9.918;2024-02-16T13:19:02;15.90;99.90
8114;DHT22;4099;52.684;9.918;2024-02-16T13:24:05;15.80;99.90
8114;DHT22;4099;52.684;9.918;2024-02-16T13:29:07;15.60;99.90
8114;DHT22;4099;52.684;9.918;2024-02-16T13:34:13;15.50;99.90
8114;DHT22;4099;52.684;9.918;2024-02-16T13:39:15;15.50;99.90
8114;DHT22;4099;52.684;9.918;2024-02-16T13:44:23;15.00;99.90
8114;DHT22;4099;52.684;9.918;2024-02-16T13:49:30;14.80;99.90
8114;DHT22;4099;52.684;9.918;2024-02-16T13:54:31;14.80;99.90
8114;DHT22;4099;52.684;9.918;2024-02-16T13:59:33;14.70;99.90
8114;DHT22;4099;52.684;9.918;2024-02-16T14:04:40;14.70;99.90
8114;DHT22;4099;52.684;9.918;2024-02-16T14:09:42;14.70;99.90
8114;DHT22;4099;52.684;9.918;2024-02-16T14:14:43;14.70;99.90
8114;DHT22;4099;52.684;9.918;2024-02-16T14:19:47;14.70;99.90
8114;DHT22;4099;52.684;9.918;2024-02-16T14:24:48;14.60;99.90
8114;DHT22;4099;52.684;9.918;2024-02-16T14:29:50;14.50;99.90
8114;DHT22;4099;52.684;9.918;2024-02-16T14:34:54;14.60;99.90
8114;DHT22;4099;52.684;9.918;2024-02-16T14:39:56;14.50;99.90
8114;DHT22;4099;52.684;9.918;2024-02-16T14:44:59;14.60;99.90
8114;DHT22;4099;52.684;9.918;2024-02-16T14:50:05;14.50;99.90
8114;DHT22;4099;52.684;9.918;2024-02-16T14:55:08;14.60;99.90
8114;DHT22;4099;52.684;9.918;2024-02-16T15:00:12;14.50;99.90
8114;DHT22;4099;52.684;9.918;2024-02-16T15:05:15;14.40;99.90
8114;DHT22;4099;52.684;9.918;2024-02-16T15:10:17;14.40;99.90
8114;DHT22;4099;52.684;9.918;2024-02-16T15:15:22;14.50;99.90
8114;DHT22;4099;52.684;9.918;2024-02-16T15:20:30;14.40;99.90
8114;DHT22;4099;52.684;9.918;2024-02-16T15:25:31;14.30;99.90
8114;DHT22;4099;52.684;9.918;2024-02-16T15:30:36;14.30;99.90
8114;DHT22;4099;52.684;9.918;2024-02-16T15:35:42;14.20;99.90
8114;DHT22;4099;52.684;9.918;2024-02-16T15:40:46;14.10;99.90
8114;DHT22;4099;52.684;9.918;2024-02-16T15:45:56;14.00;99.90
8114;DHT22;4099;52.684;9.918;2024-02-16T15:50:59;14.00;99.90
8114;DHT22;4099;52.684;9.918;2024-02-16T15:56:07;14.00;99.90
8114;DHT22;4099;52.684;9.918;2024-02-16T16:01:09;14.00;99.90
8114;DHT22;4099;52.684;9.918;2024-02-16T16:06:12;14.00;99.90
8114;DHT22;4099;52.684;9.918;2024-02-16T16:11:16;13.90;99.90
8114;DHT22;4099;52.684;9.918;2024-02-16T16:16:22;13.80;99.90
8114;DHT22;4099;52.684;9.918;2024-02-16T16:21:31;13.50;99.90
8114;DHT22;4099;52.684;9.918;2024-02-16T16:26:33;13.10;99.90
8114;DHT22;4099;52.684;9.918;2024-02-16T16:31:35;12.90;99.90
8114;DHT22;4099;52.684;9.918;2024-02-16T16:36:40;12.80;99.90
8114;DHT22;4099;52.684;9.918;2024-02-16T16:41:42;12.60;99.90
8114;DHT22;4099;52.684;9.918;2024-02-16T16:46:46;12.40;99.90
8114;DHT22;4099;52.684;9.918;2024-02-16T16:51:52;12.40;99.90
8114;DHT22;4099;52.684;9.918;2024-02-16T16:56:54;12.40;99.90
8114;DHT22;4099;52.684;9.918;2024-02-16T17:02:01;12.40;99.90
8114;DHT22;4099;52.684;9.918;2024-02-16T17:07:05;12.30;99.90
8114;DHT22;4099;52.684;9.918;2024-02-16T17:12:08;12.20;99.90
8114;DHT22;4099;52.684;9.918;2024-02-16T17:17:09;12.20;99.90
8114;DHT22;4099;52.684;9.918;2024-02-16T17:22:15;12.20;99.90
8114;DHT22;4099;52.684;9.918;2024-02-16T17:27:17;12.20;99.90
8114;DHT22;4099;52.684;9.918;2024-02-16T17:32:23;12.20;99.90
8114;DHT22;4099;52.684;9.918;2024-02-16T17:37:28;12.20;99.90
8114;DHT22;4099;52.684;9.918;2024-02-16T17:42:30;12.20;99.90
8114;DHT22;4099;52.684;9.918;2024-02-16T17:47:32;12.20;99.90
8114;DHT22;4099;52.684;9.918;2024-02-16T17:52:38;12.20;99.90
8114;DHT22;4099;52.684;9.918;2024-02-16T17:57:40;12.20;99.90
8114;DHT22;4099;52.684;9.918;2024-02-16T18:02:44;12.20;99.90
8114;DHT22;4099;52.684;9.918;2024-02-16T18:07:55;12.20;99.90
8114;DHT22;4099;52.684;9.918;2024-02-16T18:12:57;12.20;99.90
8114;DHT22;4099;52.684;9.918;2024-02-16T18:18:05;12.20;99.90
8114;DHT22;4099;52.684;9.918;2024-02-16T18:23:09;12.10;99.90
8114;DHT22;4099;52.684;9.918;2024-02-16T18:28:10;12.00;99.90
8114;DHT22;4099;52.684;9.918;2024-02-16T18:33:15;11.90;99.90
8114;DHT22;4099;52.684;9.918;2024-02-16T18:38:25;11.90;99.90
8114;DHT22;4099;52.684;9.918;2024-02-16T18:43:29;11.90;99.90
8114;DHT22;4099;52.684;9.918;2024-02-16T18:48:31;11.80;99.90
8114;DHT22;4099;52.684;9.918;2024-02-16T18:53:34;11.80;99.90
8114;DHT22;4099;52.684;9.918;2024-02-16T18:58:36;11.80;99.90
8114;DHT22;4099;52.684;9.918;2024-02-16T19:03:41;11.80;99.90
8114;DHT22;4099;52.684;9.918;2024-02-16T19:08:44;11.60;99.90
8114;DHT22;4099;52.684;9.918;2024-02-16T19:13:46;11.60;99.90
8114;DHT22;4099;52.684;9.918;2024-02-16T19:18:48;11.40;99.90
8114;DHT22;4099;52.684;9.918;2024-02-16T19:23:51;11.30;99.90
8114;DHT22;4099;52.684;9.918;2024-02-16T19:28:53;11.20;99.90
8114;DHT22;4099;52.684;9.918;2024-02-16T19:34:02;11.30;99.90
8114;DHT22;4099;52.684;9.918;2024-02-16T19:39:08;11.10;99.90
8114;DHT22;4099;52.684;9.918;2024-02-16T19:44:15;11.10;99.90
8114;DHT22;4099;52.684;9.918;2024-02-16T19:49:22;11.20;99.90
8114;DHT22;4099;52.684;9.918;2024-02-16T19:54:26;11.20;99.90
8114;DHT22;4099;52.684;9.918;2024-02-16T19:59:28;11.20;99.90
8114;DHT22;4099;52.684;9.918;2024-02-16T20:04:32;11.20;99.90
8114;DHT22;4099;52.684;9.918;2024-02-16T20:09:38;11.20;99.90
8114;DHT22;4099;52.684;9.918;2024-02-16T20:14:42;11.20;99.90
8114;DHT22;4099;52.684;9.918;2024-02-16T20:19:44;11.20;99.90
8114;DHT22;4099;52.684;9.918;2024-02-16T20:24:49;11.20;99.90
8114;DHT22;4099;52.684;9.918;2024-02-16T20:29:54;11.20;99.90
8114;DHT22;4099;52.684;9.918;2024-02-16T20:34:56;11.10;99.90
8114;DHT22;4099;52.684;9.918;2024-02-16T20:39:59;11.10;99.90
8114;DHT22;4099;52.684;9.918;2024-02-16T20:45:01;11.20;99.90
8114;DHT22;4099;52.684;9.918;2024-02-16T20:50:05;11.10;99.90
8114;DHT22;4099;52.684;9.918;2024-02-16T20:55:12;11.20;99.90
8114;DHT22;4099;52.684;9.918;2024-02-16T21:00:14;11.20;99.90
8114;DHT22;4099;52.684;9.918;2024-02-16T21:05:17;11.20;99.90
8114;DHT22;4099;52.684;9.918;2024-02-16T21:10:26;11.20;99.90
8114;DHT22;4099;52.684;9.918;2024-02-16T21:15:28;11.20;99.90
8114;DHT22;4099;52.684;9.918;2024-02-16T21:20:30;11.10;99.90
8114;DHT22;4099;52.684;9.918;2024-02-16T21:25:34;11.10;99.90
8114;DHT22;4099;52.684;9.918;2024-02-16T21:30:36;11.10;99.90
8114;DHT22;4099;52.684;9.918;2024-02-16T21:35:38;11.10;99.90
8114;DHT22;4099;52.684;9.918;2024-02-16T21:40:42;11.10;99.90
8114;DHT22;4099;52.684;9.918;2024-02-16T21:45:47;11.10;99.90
8114;DHT22;4099;52.684;9.918;2024-02-16T21:50:49;11.10;99.90
8114;DHT22;4099;52.684;9.918;2024-02-16T21:55:59;11.10;99.90
8114;DHT22;4099;52.684;9.918;2024-02-16T22:01:11;11.10;99.90
8114;DHT22;4099;52.684;9.918;2024-02-16T22:06:18;11.10;99.90
8114;DHT22;4099;52.684;9.918;2024-02-16T22:11:25;11.10;99.90
8114;DHT22;4099;52.684;9.918;2024-02-16T22:16:28;11.10;99.90
8114;DHT22;4099;52.684;9.918;2024-02-16T22:21:33;11.10;99.90
8114;DHT22;4099;52.684;9.918;2024-02-16T22:26:37;11.10;99.90
8114;DHT22;4099;52.684;9.918;2024-02-16T22:31:40;11.00;99.90
8114;DHT22;4099;52.684;9.918;2024-02-16T22:36:42;11.00;99.90
8114;DHT22;4099;52.684;9.918;2024-02-16T22:41:45;10.90;99.90
8114;DHT22;4099;52.684;9.918;2024-02-16T22:46:50;11.00;99.90
8114;DHT22;4099;52.684;9.918;2024-02-16T22:51:52;11.00;99.90
8114;DHT22;4099;52.684;9.918;2024-02-16T22:56:55;10.90;99.90
8114;DHT22;4099;52.684;9.918;2024-02-16T23:01:57;11.00;99.90
8114;DHT22;4099;52.684;9.918;2024-02-16T23:07:00;10.90;99.90
8114;DHT22;4099;52.684;9.918;2024-02-16T23:12:04;10.90;99.90
8114;DHT22;4099;52.684;9.918;2024-02-16T23:17:09;10.80;99.90
8114;DHT22;4099;52.684;9.918;2024-02-16T23:22:11;10.80;99.90
8114;DHT22;4099;52.684;9.918;2024-02-16T23:27:17;10.80;99.90
8114;DHT22;4099;52.684;9.918;2024-02-16T23:32:19;10.80;99.90
8114;DHT22;4099;52.684;9.918;2024-02-16T23:37:24;10.80;99.90
8114;DHT22;4099;52.684;9.918;2024-02-16T23:42:30;10.70;99.90
8114;DHT22;4099;52.684;9.918;2024-02-16T23:47:32;10.60;99.90
8114;DHT22;4099;52.684;9.918;2024-02-16T23:52:34;10.50;99.90
8114;DHT22;4099;52.684;9.918;2024-02-16T23:57:40;10.50;99.90
